sensor_id;sensor_type;location;lat;lon;timestamp;P1;durP1;ratioP1;P2;durP2;ratioP2
47155;SDS011;32908;52.344;16.858;2023-05-29T00:00:49;14.10;;;5.50;;
47155;SDS011;32908;52.344;16.858;2023-05-29T00:03:27;18.10;;;4.80;;
47155;SDS011;32908;52.344;16.858;2023-05-29T00:06:01;10.40;;;4.50;;
47155;SDS011;32908;52.344;16.858;2023-05-29T00:08:33;13.90;;;5.60;;
47155;SDS011;32908;52.344;16.858;2023-05-29T00:11:04;13.20;;;4.80;;
47155;SDS011;32908;52.344;16.858;2023-05-29T00:13:35;19.40;;;5.70;;
47155;SDS011;32908;52.344;16.858;2023-05-29T00:16:06;13.80;;;5.60;;
47155;SDS011;32908;52.344;16.858;2023-05-29T00:18:37;14.40;;;5.70;;
47155;SDS011;32908;52.344;16.858;2023-05-29T00:21:13;16.60;;;5.70;;
47155;SDS011;32908;52.344;16.858;2023-05-29T00:23:43;11.00;;;5.40;;
47155;SDS011;32908;52.344;16.858;2023-05-29T00:26:14;14.30;;;5.60;;
47155;SDS011;32908;52.344;16.858;2023-05-29T00:28:45;13.70;;;5.10;;
47155;SDS011;32908;52.344;16.858;2023-05-29T00:31:15;16.10;;;5.70;;
47155;SDS011;32908;52.344;16.858;2023-05-29T00:33:46;13.20;;;5.40;;
47155;SDS011;32908;52.344;16.858;2023-05-29T00:36:17;19.60;;;5.80;;
47155;SDS011;32908;52.344;16.858;2023-05-29T00:38:49;12.90;;;4.60;;
47155;SDS011;32908;52.344;16.858;2023-05-29T00:41:20;16.70;;;6.00;;
47155;SDS011;32908;52.344;16.858;2023-05-29T00:43:50;13.20;;;5.90;;
47155;SDS011;32908;52.344;16.858;2023-05-29T00:46:21;13.60;;;6.50;;
47155;SDS011;32908;52.344;16.858;2023-05-29T00:48:52;18.70;;;7.10;;
47155;SDS011;32908;52.344;16.858;2023-05-29T00:51:23;12.60;;;6.00;;
47155;SDS011;32908;52.344;16.858;2023-05-29T00:53:54;16.80;;;6.60;;
47155;SDS011;32908;52.344;16.858;2023-05-29T00:56:25;13.00;;;6.20;;
47155;SDS011;32908;52.344;16.858;2023-05-29T00:58:56;18.70;;;6.30;;
47155;SDS011;32908;52.344;16.858;2023-05-29T01:01:27;16.40;;;6.00;;
47155;SDS011;32908;52.344;16.858;2023-05-29T01:04:00;13.40;;;5.60;;
47155;SDS011;32908;52.344;16.858;2023-05-29T01:06:31;18.70;;;6.90;;
47155;SDS011;32908;52.344;16.858;2023-05-29T01:09:02;15.50;;;6.30;;
47155;SDS011;32908;52.344;16.858;2023-05-29T01:11:36;18.90;;;6.30;;
47155;SDS011;32908;52.344;16.858;2023-05-29T01:16:42;14.10;;;6.40;;
47155;SDS011;32908;52.344;16.858;2023-05-29T01:19:20;15.90;;;6.40;;
47155;SDS011;32908;52.344;16.858;2023-05-29T01:22:01;12.60;;;6.30;;
47155;SDS011;32908;52.344;16.858;2023-05-29T01:24:45;17.60;;;6.90;;
47155;SDS011;32908;52.344;16.858;2023-05-29T01:27:19;15.10;;;6.90;;
47155;SDS011;32908;52.344;16.858;2023-05-29T01:29:52;11.70;;;5.90;;
47155;SDS011;32908;52.344;16.858;2023-05-29T01:32:25;14.20;;;6.30;;
47155;SDS011;32908;52.344;16.858;2023-05-29T01:34:56;15.80;;;6.70;;
47155;SDS011;32908;52.344;16.858;2023-05-29T01:37:27;13.00;;;5.70;;
47155;SDS011;32908;52.344;16.858;2023-05-29T01:39:58;14.80;;;6.10;;
47155;SDS011;32908;52.344;16.858;2023-05-29T01:42:28;13.40;;;6.60;;
47155;SDS011;32908;52.344;16.858;2023-05-29T01:44:59;13.70;;;6.30;;
47155;SDS011;32908;52.344;16.858;2023-05-29T01:47:31;16.50;;;6.10;;
47155;SDS011;32908;52.344;16.858;2023-05-29T01:50:02;16.90;;;7.30;;
47155;SDS011;32908;52.344;16.858;2023-05-29T01:52:35;16.30;;;6.40;;
47155;SDS011;32908;52.344;16.858;2023-05-29T01:55:06;14.20;;;6.90;;
47155;SDS011;32908;52.344;16.858;2023-05-29T01:57:37;14.50;;;6.80;;
47155;SDS011;32908;52.344;16.858;2023-05-29T02:00:09;14.80;;;7.40;;
47155;SDS011;32908;52.344;16.858;2023-05-29T02:02:41;14.20;;;6.10;;
47155;SDS011;32908;52.344;16.858;2023-05-29T02:05:11;16.40;;;6.60;;
47155;SDS011;32908;52.344;16.858;2023-05-29T02:07:42;17.80;;;7.60;;
47155;SDS011;32908;52.344;16.858;2023-05-29T02:10:14;13.90;;;7.40;;
47155;SDS011;32908;52.344;16.858;2023-05-29T02:12:45;19.80;;;7.40;;
47155;SDS011;32908;52.344;16.858;2023-05-29T02:15:16;17.80;;;8.00;;
47155;SDS011;32908;52.344;16.858;2023-05-29T02:17:47;14.90;;;7.10;;
47155;SDS011;32908;52.344;16.858;2023-05-29T02:20:17;15.70;;;6.80;;
47155;SDS011;32908;52.344;16.858;2023-05-29T02:22:49;16.30;;;7.50;;
47155;SDS011;32908;52.344;16.858;2023-05-29T02:25:19;27.10;;;8.20;;
47155;SDS011;32908;52.344;16.858;2023-05-29T02:27:50;14.80;;;6.80;;
47155;SDS011;32908;52.344;16.858;2023-05-29T02:30:21;15.70;;;6.40;;
47155;SDS011;32908;52.344;16.858;2023-05-29T02:32:51;14.20;;;6.70;;
47155;SDS011;32908;52.344;16.858;2023-05-29T02:35:22;15.50;;;6.80;;
47155;SDS011;32908;52.344;16.858;2023-05-29T02:37:53;15.40;;;6.20;;
47155;SDS011;32908;52.344;16.858;2023-05-29T02:40:24;12.90;;;6.30;;
47155;SDS011;32908;52.344;16.858;2023-05-29T02:42:55;15.50;;;6.60;;
47155;SDS011;32908;52.344;16.858;2023-05-29T02:45:25;13.60;;;5.80;;
47155;SDS011;32908;52.344;16.858;2023-05-29T02:47:56;15.20;;;6.30;;
47155;SDS011;32908;52.344;16.858;2023-05-29T02:50:27;15.10;;;6.80;;
47155;SDS011;32908;52.344;16.858;2023-05-29T02:52:58;16.30;;;6.20;;
47155;SDS011;32908;52.344;16.858;2023-05-29T02:55:28;15.20;;;7.30;;
47155;SDS011;32908;52.344;16.858;2023-05-29T02:58:03;14.70;;;6.60;;
47155;SDS011;32908;52.344;16.858;2023-05-29T03:00:34;15.40;;;6.30;;
47155;SDS011;32908;52.344;16.858;2023-05-29T03:03:04;15.10;;;6.30;;
47155;SDS011;32908;52.344;16.858;2023-05-29T03:05:35;13.40;;;6.30;;
47155;SDS011;32908;52.344;16.858;2023-05-29T03:08:06;14.60;;;6.80;;
47155;SDS011;32908;52.344;16.858;2023-05-29T03:10:38;14.80;;;6.60;;
47155;SDS011;32908;52.344;16.858;2023-05-29T03:13:08;14.90;;;6.60;;
47155;SDS011;32908;52.344;16.858;2023-05-29T03:15:39;18.20;;;6.80;;
47155;SDS011;32908;52.344;16.858;2023-05-29T03:18:10;17.10;;;6.80;;
47155;SDS011;32908;52.344;16.858;2023-05-29T03:20:41;14.80;;;6.90;;
47155;SDS011;32908;52.344;16.858;2023-05-29T03:23:11;17.20;;;6.80;;
47155;SDS011;32908;52.344;16.858;2023-05-29T03:25:42;14.10;;;6.30;;
47155;SDS011;32908;52.344;16.858;2023-05-29T03:28:13;14.30;;;6.70;;
47155;SDS011;32908;52.344;16.858;2023-05-29T03:30:43;13.90;;;6.40;;
47155;SDS011;32908;52.344;16.858;2023-05-29T03:33:14;20.30;;;7.40;;
47155;SDS011;32908;52.344;16.858;2023-05-29T03:35:45;10.90;;;6.30;;
47155;SDS011;32908;52.344;16.858;2023-05-29T03:38:15;10.80;;;5.80;;
47155;SDS011;32908;52.344;16.858;2023-05-29T03:40:46;10.20;;;5.90;;
47155;SDS011;32908;52.344;16.858;2023-05-29T03:43:17;8.30;;;5.70;;
47155;SDS011;32908;52.344;16.858;2023-05-29T03:45:47;8.30;;;5.60;;
47155;SDS011;32908;52.344;16.858;2023-05-29T03:48:18;10.20;;;5.60;;
47155;SDS011;32908;52.344;16.858;2023-05-29T03:50:49;11.70;;;5.80;;
47155;SDS011;32908;52.344;16.858;2023-05-29T03:53:19;12.60;;;5.60;;
47155;SDS011;32908;52.344;16.858;2023-05-29T03:55:50;9.20;;;5.10;;
47155;SDS011;32908;52.344;16.858;2023-05-29T03:58:21;12.60;;;5.40;;
47155;SDS011;32908;52.344;16.858;2023-05-29T04:00:51;9.20;;;5.30;;
47155;SDS011;32908;52.344;16.858;2023-05-29T04:03:22;8.40;;;4.90;;
47155;SDS011;32908;52.344;16.858;2023-05-29T04:05:53;10.00;;;4.60;;
47155;SDS011;32908;52.344;16.858;2023-05-29T04:08:24;8.90;;;5.10;;
47155;SDS011;32908;52.344;16.858;2023-05-29T04:10:54;7.60;;;4.70;;
47155;SDS011;32908;52.344;16.858;2023-05-29T04:13:25;13.50;;;4.80;;
47155;SDS011;32908;52.344;16.858;2023-05-29T04:15:56;10.30;;;4.70;;
47155;SDS011;32908;52.344;16.858;2023-05-29T04:18:27;7.40;;;4.50;;
47155;SDS011;32908;52.344;16.858;2023-05-29T04:20:57;13.80;;;4.50;;
47155;SDS011;32908;52.344;16.858;2023-05-29T04:23:28;6.90;;;4.50;;
47155;SDS011;32908;52.344;16.858;2023-05-29T04:25:59;14.70;;;5.20;;
47155;SDS011;32908;52.344;16.858;2023-05-29T04:28:29;9.90;;;4.70;;
47155;SDS011;32908;52.344;16.858;2023-05-29T04:31:00;11.50;;;5.00;;
47155;SDS011;32908;52.344;16.858;2023-05-29T04:33:31;9.30;;;4.40;;
47155;SDS011;32908;52.344;16.858;2023-05-29T04:36:05;10.40;;;5.30;;
47155;SDS011;32908;52.344;16.858;2023-05-29T04:38:36;9.80;;;5.10;;
47155;SDS011;32908;52.344;16.858;2023-05-29T04:41:07;8.70;;;4.40;;
47155;SDS011;32908;52.344;16.858;2023-05-29T04:43:38;10.70;;;4.70;;
47155;SDS011;32908;52.344;16.858;2023-05-29T04:46:09;9.80;;;4.60;;
47155;SDS011;32908;52.344;16.858;2023-05-29T04:48:40;7.80;;;4.60;;
47155;SDS011;32908;52.344;16.858;2023-05-29T04:51:11;7.40;;;4.60;;
47155;SDS011;32908;52.344;16.858;2023-05-29T04:53:42;11.80;;;4.70;;
47155;SDS011;32908;52.344;16.858;2023-05-29T04:56:14;9.80;;;4.70;;
47155;SDS011;32908;52.344;16.858;2023-05-29T04:58:44;10.40;;;4.60;;
47155;SDS011;32908;52.344;16.858;2023-05-29T05:01:15;7.60;;;4.60;;
47155;SDS011;32908;52.344;16.858;2023-05-29T05:03:46;13.30;;;4.00;;
47155;SDS011;32908;52.344;16.858;2023-05-29T05:06:17;13.40;;;4.70;;
47155;SDS011;32908;52.344;16.858;2023-05-29T05:08:48;13.40;;;4.10;;
47155;SDS011;32908;52.344;16.858;2023-05-29T05:11:19;10.40;;;4.50;;
47155;SDS011;32908;52.344;16.858;2023-05-29T05:13:50;14.50;;;5.10;;
47155;SDS011;32908;52.344;16.858;2023-05-29T05:16:21;6.30;;;4.20;;
47155;SDS011;32908;52.344;16.858;2023-05-29T05:18:52;9.40;;;4.80;;
47155;SDS011;32908;52.344;16.858;2023-05-29T05:21:23;9.20;;;4.40;;
47155;SDS011;32908;52.344;16.858;2023-05-29T05:23:54;10.10;;;4.20;;
47155;SDS011;32908;52.344;16.858;2023-05-29T05:26:24;8.70;;;4.30;;
47155;SDS011;32908;52.344;16.858;2023-05-29T05:28:55;7.50;;;3.60;;
47155;SDS011;32908;52.344;16.858;2023-05-29T05:31:26;5.00;;;3.40;;
47155;SDS011;32908;52.344;16.858;2023-05-29T05:33:57;8.50;;;4.00;;
47155;SDS011;32908;52.344;16.858;2023-05-29T05:36:27;5.30;;;3.70;;
47155;SDS011;32908;52.344;16.858;2023-05-29T05:38:58;7.10;;;3.70;;
47155;SDS011;32908;52.344;16.858;2023-05-29T05:41:29;13.80;;;4.80;;
47155;SDS011;32908;52.344;16.858;2023-05-29T05:44:00;11.20;;;4.10;;
47155;SDS011;32908;52.344;16.858;2023-05-29T05:46:31;9.00;;;3.90;;
47155;SDS011;32908;52.344;16.858;2023-05-29T05:49:01;10.40;;;4.30;;
47155;SDS011;32908;52.344;16.858;2023-05-29T05:51:32;11.00;;;3.80;;
47155;SDS011;32908;52.344;16.858;2023-05-29T05:54:03;8.50;;;3.90;;
47155;SDS011;32908;52.344;16.858;2023-05-29T05:56:34;12.70;;;4.00;;
47155;SDS011;32908;52.344;16.858;2023-05-29T05:59:05;11.50;;;3.80;;
47155;SDS011;32908;52.344;16.858;2023-05-29T06:01:35;8.80;;;3.10;;
47155;SDS011;32908;52.344;16.858;2023-05-29T06:04:07;10.90;;;3.40;;
47155;SDS011;32908;52.344;16.858;2023-05-29T06:06:38;9.10;;;4.40;;
47155;SDS011;32908;52.344;16.858;2023-05-29T06:09:09;7.90;;;3.60;;
47155;SDS011;32908;52.344;16.858;2023-05-29T06:11:40;11.10;;;4.30;;
47155;SDS011;32908;52.344;16.858;2023-05-29T06:14:11;6.80;;;3.40;;
47155;SDS011;32908;52.344;16.858;2023-05-29T06:16:41;10.20;;;3.70;;
47155;SDS011;32908;52.344;16.858;2023-05-29T06:19:12;7.80;;;3.30;;
47155;SDS011;32908;52.344;16.858;2023-05-29T06:21:43;6.10;;;3.30;;
47155;SDS011;32908;52.344;16.858;2023-05-29T06:24:14;6.10;;;3.80;;
47155;SDS011;32908;52.344;16.858;2023-05-29T06:26:44;7.30;;;3.80;;
47155;SDS011;32908;52.344;16.858;2023-05-29T06:29:15;15.00;;;5.00;;
47155;SDS011;32908;52.344;16.858;2023-05-29T06:31:46;10.60;;;5.10;;
47155;SDS011;32908;52.344;16.858;2023-05-29T06:34:16;11.60;;;5.00;;
47155;SDS011;32908;52.344;16.858;2023-05-29T06:36:47;12.70;;;3.60;;
47155;SDS011;32908;52.344;16.858;2023-05-29T06:39:18;8.60;;;4.00;;
47155;SDS011;32908;52.344;16.858;2023-05-29T06:41:48;8.70;;;3.50;;
47155;SDS011;32908;52.344;16.858;2023-05-29T07:01:13;6.90;;;3.30;;
47155;SDS011;32908;52.344;16.858;2023-05-29T07:03:45;7.10;;;3.30;;
47155;SDS011;32908;52.344;16.858;2023-05-29T07:06:16;6.90;;;3.10;;
47155;SDS011;32908;52.344;16.858;2023-05-29T07:08:47;9.30;;;4.00;;
47155;SDS011;32908;52.344;16.858;2023-05-29T07:11:17;9.50;;;3.30;;
47155;SDS011;32908;52.344;16.858;2023-05-29T07:13:48;14.60;;;6.00;;
47155;SDS011;32908;52.344;16.858;2023-05-29T07:16:19;75.10;;;39.40;;
47155;SDS011;32908;52.344;16.858;2023-05-29T07:18:49;35.00;;;16.80;;
47155;SDS011;32908;52.344;16.858;2023-05-29T07:21:20;23.00;;;10.90;;
47155;SDS011;32908;52.344;16.858;2023-05-29T07:23:50;51.50;;;27.20;;
47155;SDS011;32908;52.344;16.858;2023-05-29T07:26:21;21.10;;;10.60;;
47155;SDS011;32908;52.344;16.858;2023-05-29T07:28:53;35.40;;;19.70;;
47155;SDS011;32908;52.344;16.858;2023-05-29T07:31:23;20.20;;;8.00;;
47155;SDS011;32908;52.344;16.858;2023-05-29T07:33:54;9.40;;;4.40;;
47155;SDS011;32908;52.344;16.858;2023-05-29T07:36:28;10.60;;;4.40;;
47155;SDS011;32908;52.344;16.858;2023-05-29T07:38:59;5.20;;;3.00;;
47155;SDS011;32908;52.344;16.858;2023-05-29T07:41:33;12.50;;;5.40;;
47155;SDS011;32908;52.344;16.858;2023-05-29T07:44:03;14.60;;;4.40;;
47155;SDS011;32908;52.344;16.858;2023-05-29T07:46:34;8.70;;;2.90;;
47155;SDS011;32908;52.344;16.858;2023-05-29T07:49:05;9.30;;;2.70;;
47155;SDS011;32908;52.344;16.858;2023-05-29T07:51:35;4.90;;;2.80;;
47155;SDS011;32908;52.344;16.858;2023-05-29T07:54:06;7.90;;;2.90;;
47155;SDS011;32908;52.344;16.858;2023-05-29T07:56:36;8.80;;;3.00;;
47155;SDS011;32908;52.344;16.858;2023-05-29T07:59:08;12.00;;;3.50;;
47155;SDS011;32908;52.344;16.858;2023-05-29T08:01:39;29.60;;;15.30;;
47155;SDS011;32908;52.344;16.858;2023-05-29T08:04:11;14.40;;;7.40;;
47155;SDS011;32908;52.344;16.858;2023-05-29T08:06:42;14.20;;;4.10;;
47155;SDS011;32908;52.344;16.858;2023-05-29T08:09:13;8.40;;;3.30;;
47155;SDS011;32908;52.344;16.858;2023-05-29T08:11:43;5.90;;;2.50;;
47155;SDS011;32908;52.344;16.858;2023-05-29T08:14:14;9.40;;;3.30;;
47155;SDS011;32908;52.344;16.858;2023-05-29T08:16:46;5.90;;;2.40;;
47155;SDS011;32908;52.344;16.858;2023-05-29T08:19:16;7.10;;;2.60;;
47155;SDS011;32908;52.344;16.858;2023-05-29T08:21:47;8.10;;;3.10;;
47155;SDS011;32908;52.344;16.858;2023-05-29T08:24:18;6.40;;;2.50;;
47155;SDS011;32908;52.344;16.858;2023-05-29T08:26:48;7.30;;;3.30;;
47155;SDS011;32908;52.344;16.858;2023-05-29T08:29:19;7.30;;;2.60;;
47155;SDS011;32908;52.344;16.858;2023-05-29T08:31:50;6.80;;;2.80;;
47155;SDS011;32908;52.344;16.858;2023-05-29T08:34:21;9.80;;;2.80;;
47155;SDS011;32908;52.344;16.858;2023-05-29T08:36:52;8.60;;;2.60;;
47155;SDS011;32908;52.344;16.858;2023-05-29T08:39:23;8.00;;;2.20;;
47155;SDS011;32908;52.344;16.858;2023-05-29T08:41:55;3.90;;;2.40;;
47155;SDS011;32908;52.344;16.858;2023-05-29T08:44:30;5.50;;;2.20;;
47155;SDS011;32908;52.344;16.858;2023-05-29T08:47:02;9.10;;;2.80;;
47155;SDS011;32908;52.344;16.858;2023-05-29T08:49:34;8.00;;;2.50;;
47155;SDS011;32908;52.344;16.858;2023-05-29T08:52:09;6.80;;;2.70;;
47155;SDS011;32908;52.344;16.858;2023-05-29T08:54:43;6.70;;;2.70;;
47155;SDS011;32908;52.344;16.858;2023-05-29T08:57:14;6.50;;;2.70;;
47155;SDS011;32908;52.344;16.858;2023-05-29T08:59:45;7.10;;;2.50;;
47155;SDS011;32908;52.344;16.858;2023-05-29T09:02:17;8.70;;;2.50;;
47155;SDS011;32908;52.344;16.858;2023-05-29T09:04:48;5.10;;;2.30;;
47155;SDS011;32908;52.344;16.858;2023-05-29T09:07:20;7.70;;;2.80;;
47155;SDS011;32908;52.344;16.858;2023-05-29T09:09:53;6.80;;;2.50;;
47155;SDS011;32908;52.344;16.858;2023-05-29T09:12:24;4.50;;;2.10;;
47155;SDS011;32908;52.344;16.858;2023-05-29T09:14:55;7.80;;;2.80;;
47155;SDS011;32908;52.344;16.858;2023-05-29T09:17:29;5.70;;;2.40;;
47155;SDS011;32908;52.344;16.858;2023-05-29T09:20:01;6.00;;;2.40;;
47155;SDS011;32908;52.344;16.858;2023-05-29T09:22:35;4.10;;;2.10;;
47155;SDS011;32908;52.344;16.858;2023-05-29T09:25:07;6.20;;;2.50;;
47155;SDS011;32908;52.344;16.858;2023-05-29T09:27:39;9.10;;;2.20;;
47155;SDS011;32908;52.344;16.858;2023-05-29T09:30:11;7.40;;;2.20;;
47155;SDS011;32908;52.344;16.858;2023-05-29T09:33:01;4.20;;;2.20;;
47155;SDS011;32908;52.344;16.858;2023-05-29T09:35:33;5.10;;;2.10;;
47155;SDS011;32908;52.344;16.858;2023-05-29T09:38:05;5.90;;;2.30;;
47155;SDS011;32908;52.344;16.858;2023-05-29T09:40:37;8.00;;;2.50;;
47155;SDS011;32908;52.344;16.858;2023-05-29T09:43:10;5.50;;;2.50;;
47155;SDS011;32908;52.344;16.858;2023-05-29T09:45:42;7.70;;;2.50;;
47155;SDS011;32908;52.344;16.858;2023-05-29T09:48:14;10.90;;;2.30;;
47155;SDS011;32908;52.344;16.858;2023-05-29T09:50:45;6.40;;;2.60;;
47155;SDS011;32908;52.344;16.858;2023-05-29T09:53:20;5.80;;;2.60;;
47155;SDS011;32908;52.344;16.858;2023-05-29T09:55:52;6.60;;;2.50;;
47155;SDS011;32908;52.344;16.858;2023-05-29T09:58:24;4.80;;;2.70;;
47155;SDS011;32908;52.344;16.858;2023-05-29T10:00:54;6.10;;;2.30;;
47155;SDS011;32908;52.344;16.858;2023-05-29T10:03:25;4.20;;;2.40;;
47155;SDS011;32908;52.344;16.858;2023-05-29T10:06:02;6.40;;;2.50;;
47155;SDS011;32908;52.344;16.858;2023-05-29T10:08:37;4.30;;;2.30;;
47155;SDS011;32908;52.344;16.858;2023-05-29T10:11:08;6.50;;;2.50;;
47155;SDS011;32908;52.344;16.858;2023-05-29T10:13:43;7.80;;;3.10;;
47155;SDS011;32908;52.344;16.858;2023-05-29T10:16:18;6.90;;;2.20;;
47155;SDS011;32908;52.344;16.858;2023-05-29T10:18:53;7.40;;;2.50;;
47155;SDS011;32908;52.344;16.858;2023-05-29T10:21:26;6.40;;;2.40;;
47155;SDS011;32908;52.344;16.858;2023-05-29T10:23:57;5.50;;;2.30;;
47155;SDS011;32908;52.344;16.858;2023-05-29T10:26:28;6.90;;;2.40;;
47155;SDS011;32908;52.344;16.858;2023-05-29T10:29:01;3.90;;;2.10;;
47155;SDS011;32908;52.344;16.858;2023-05-29T10:31:43;6.40;;;2.80;;
47155;SDS011;32908;52.344;16.858;2023-05-29T10:34:23;6.50;;;2.90;;
47155;SDS011;32908;52.344;16.858;2023-05-29T10:37:02;8.60;;;2.90;;
47155;SDS011;32908;52.344;16.858;2023-05-29T10:39:35;6.30;;;2.60;;
47155;SDS011;32908;52.344;16.858;2023-05-29T10:42:08;4.70;;;2.50;;
47155;SDS011;32908;52.344;16.858;2023-05-29T10:45:12;5.40;;;2.50;;
47155;SDS011;32908;52.344;16.858;2023-05-29T10:51:25;7.10;;;2.40;;
47155;SDS011;32908;52.344;16.858;2023-05-29T10:54:00;6.30;;;2.60;;
47155;SDS011;32908;52.344;16.858;2023-05-29T10:56:31;7.50;;;2.60;;
47155;SDS011;32908;52.344;16.858;2023-05-29T10:59:02;5.70;;;2.60;;
47155;SDS011;32908;52.344;16.858;2023-05-29T11:01:32;7.20;;;2.70;;
47155;SDS011;32908;52.344;16.858;2023-05-29T11:06:59;6.50;;;2.40;;
47155;SDS011;32908;52.344;16.858;2023-05-29T11:09:35;6.40;;;2.40;;
47155;SDS011;32908;52.344;16.858;2023-05-29T11:12:14;5.30;;;2.40;;
47155;SDS011;32908;52.344;16.858;2023-05-29T11:14:56;5.50;;;2.40;;
47155;SDS011;32908;52.344;16.858;2023-05-29T11:17:42;7.60;;;2.50;;
47155;SDS011;32908;52.344;16.858;2023-05-29T11:20:27;6.90;;;2.70;;
47155;SDS011;32908;52.344;16.858;2023-05-29T11:23:04;6.00;;;2.60;;
47155;SDS011;32908;52.344;16.858;2023-05-29T11:25:37;6.60;;;3.00;;
47155;SDS011;32908;52.344;16.858;2023-05-29T11:28:07;5.50;;;2.50;;
47155;SDS011;32908;52.344;16.858;2023-05-29T11:30:42;4.50;;;2.50;;
47155;SDS011;32908;52.344;16.858;2023-05-29T11:33:25;5.80;;;2.30;;
47155;SDS011;32908;52.344;16.858;2023-05-29T11:35:57;5.00;;;2.60;;
47155;SDS011;32908;52.344;16.858;2023-05-29T11:38:29;5.70;;;2.60;;
47155;SDS011;32908;52.344;16.858;2023-05-29T11:41:00;5.90;;;2.40;;
47155;SDS011;32908;52.344;16.858;2023-05-29T11:43:32;10.10;;;2.80;;
47155;SDS011;32908;52.344;16.858;2023-05-29T11:46:04;4.70;;;3.00;;
47155;SDS011;32908;52.344;16.858;2023-05-29T11:48:46;9.10;;;3.00;;
47155;SDS011;32908;52.344;16.858;2023-05-29T11:51:17;3.90;;;2.50;;
47155;SDS011;32908;52.344;16.858;2023-05-29T11:53:48;4.30;;;2.10;;
47155;SDS011;32908;52.344;16.858;2023-05-29T11:56:25;6.30;;;2.40;;
47155;SDS011;32908;52.344;16.858;2023-05-29T11:58:58;5.90;;;2.50;;
47155;SDS011;32908;52.344;16.858;2023-05-29T12:01:29;7.50;;;2.80;;
47155;SDS011;32908;52.344;16.858;2023-05-29T12:04:06;4.10;;;2.60;;
47155;SDS011;32908;52.344;16.858;2023-05-29T12:06:44;3.50;;;2.50;;
47155;SDS011;32908;52.344;16.858;2023-05-29T12:09:24;4.00;;;2.70;;
47155;SDS011;32908;52.344;16.858;2023-05-29T12:12:00;7.80;;;3.50;;
47155;SDS011;32908;52.344;16.858;2023-05-29T12:14:32;5.60;;;3.00;;
47155;SDS011;32908;52.344;16.858;2023-05-29T12:17:03;6.40;;;2.60;;
47155;SDS011;32908;52.344;16.858;2023-05-29T12:19:36;4.60;;;2.50;;
47155;SDS011;32908;52.344;16.858;2023-05-29T12:22:07;4.50;;;2.50;;
47155;SDS011;32908;52.344;16.858;2023-05-29T12:24:37;10.20;;;2.90;;
47155;SDS011;32908;52.344;16.858;2023-05-29T12:27:08;6.30;;;2.50;;
47155;SDS011;32908;52.344;16.858;2023-05-29T12:29:39;8.40;;;2.70;;
47155;SDS011;32908;52.344;16.858;2023-05-29T12:32:10;5.40;;;2.60;;
47155;SDS011;32908;52.344;16.858;2023-05-29T12:34:41;5.40;;;2.50;;
47155;SDS011;32908;52.344;16.858;2023-05-29T12:37:12;4.90;;;2.40;;
47155;SDS011;32908;52.344;16.858;2023-05-29T12:39:42;3.80;;;1.80;;
47155;SDS011;32908;52.344;16.858;2023-05-29T12:42:13;6.70;;;2.50;;
47155;SDS011;32908;52.344;16.858;2023-05-29T12:44:45;4.50;;;2.60;;
47155;SDS011;32908;52.344;16.858;2023-05-29T12:47:15;5.90;;;2.40;;
47155;SDS011;32908;52.344;16.858;2023-05-29T12:49:53;3.40;;;2.30;;
47155;SDS011;32908;52.344;16.858;2023-05-29T12:52:24;5.20;;;2.50;;
47155;SDS011;32908;52.344;16.858;2023-05-29T12:54:55;8.20;;;2.60;;
47155;SDS011;32908;52.344;16.858;2023-05-29T12:57:26;3.60;;;2.20;;
47155;SDS011;32908;52.344;16.858;2023-05-29T12:59:57;7.30;;;2.40;;
47155;SDS011;32908;52.344;16.858;2023-05-29T13:02:28;4.50;;;2.10;;
47155;SDS011;32908;52.344;16.858;2023-05-29T13:04:59;3.90;;;2.10;;
47155;SDS011;32908;52.344;16.858;2023-05-29T13:07:29;4.30;;;2.00;;
47155;SDS011;32908;52.344;16.858;2023-05-29T13:10:00;5.50;;;2.10;;
47155;SDS011;32908;52.344;16.858;2023-05-29T13:12:31;5.30;;;2.20;;
47155;SDS011;32908;52.344;16.858;2023-05-29T13:15:02;5.50;;;2.20;;
47155;SDS011;32908;52.344;16.858;2023-05-29T13:17:34;7.40;;;2.60;;
47155;SDS011;32908;52.344;16.858;2023-05-29T13:20:06;4.70;;;2.40;;
47155;SDS011;32908;52.344;16.858;2023-05-29T13:22:39;6.70;;;2.30;;
47155;SDS011;32908;52.344;16.858;2023-05-29T13:25:11;5.00;;;2.60;;
47155;SDS011;32908;52.344;16.858;2023-05-29T13:30:44;3.90;;;2.40;;
47155;SDS011;32908;52.344;16.858;2023-05-29T13:33:15;4.00;;;2.50;;
47155;SDS011;32908;52.344;16.858;2023-05-29T13:35:46;6.70;;;2.30;;
47155;SDS011;32908;52.344;16.858;2023-05-29T13:38:16;6.00;;;2.60;;
47155;SDS011;32908;52.344;16.858;2023-05-29T13:40:47;5.90;;;2.80;;
47155;SDS011;32908;52.344;16.858;2023-05-29T13:43:18;5.00;;;2.30;;
47155;SDS011;32908;52.344;16.858;2023-05-29T13:45:49;2.10;;;1.90;;
47155;SDS011;32908;52.344;16.858;2023-05-29T13:48:20;3.70;;;2.20;;
47155;SDS011;32908;52.344;16.858;2023-05-29T13:50:50;4.50;;;2.40;;
47155;SDS011;32908;52.344;16.858;2023-05-29T13:53:21;6.40;;;2.50;;
47155;SDS011;32908;52.344;16.858;2023-05-29T13:55:52;5.50;;;2.10;;
47155;SDS011;32908;52.344;16.858;2023-05-29T13:58:22;2.90;;;2.20;;
47155;SDS011;32908;52.344;16.858;2023-05-29T14:00:53;7.00;;;2.60;;
47155;SDS011;32908;52.344;16.858;2023-05-29T14:03:24;6.80;;;2.70;;
47155;SDS011;32908;52.344;16.858;2023-05-29T14:05:56;11.30;;;2.40;;
47155;SDS011;32908;52.344;16.858;2023-05-29T14:08:27;4.00;;;2.20;;
47155;SDS011;32908;52.344;16.858;2023-05-29T14:10:57;4.20;;;2.30;;
47155;SDS011;32908;52.344;16.858;2023-05-29T14:13:28;7.50;;;2.70;;
47155;SDS011;32908;52.344;16.858;2023-05-29T14:15:59;4.20;;;2.00;;
47155;SDS011;32908;52.344;16.858;2023-05-29T14:18:30;8.00;;;2.10;;
47155;SDS011;32908;52.344;16.858;2023-05-29T14:21:00;3.80;;;2.10;;
47155;SDS011;32908;52.344;16.858;2023-05-29T14:23:31;4.00;;;1.80;;
47155;SDS011;32908;52.344;16.858;2023-05-29T14:26:02;8.60;;;2.20;;
47155;SDS011;32908;52.344;16.858;2023-05-29T14:28:33;3.70;;;2.10;;
47155;SDS011;32908;52.344;16.858;2023-05-29T14:31:04;5.60;;;2.20;;
47155;SDS011;32908;52.344;16.858;2023-05-29T14:33:35;5.40;;;2.10;;
47155;SDS011;32908;52.344;16.858;2023-05-29T14:36:06;4.90;;;2.70;;
47155;SDS011;32908;52.344;16.858;2023-05-29T14:38:37;3.70;;;2.10;;
47155;SDS011;32908;52.344;16.858;2023-05-29T14:41:08;2.40;;;2.10;;
47155;SDS011;32908;52.344;16.858;2023-05-29T14:43:40;3.80;;;2.10;;
47155;SDS011;32908;52.344;16.858;2023-05-29T14:46:11;2.50;;;2.10;;
47155;SDS011;32908;52.344;16.858;2023-05-29T14:48:42;4.80;;;2.70;;
47155;SDS011;32908;52.344;16.858;2023-05-29T14:51:14;5.00;;;2.40;;
47155;SDS011;32908;52.344;16.858;2023-05-29T14:53:46;7.70;;;2.30;;
47155;SDS011;32908;52.344;16.858;2023-05-29T14:56:17;5.30;;;2.20;;
47155;SDS011;32908;52.344;16.858;2023-05-29T14:58:48;9.20;;;2.10;;
47155;SDS011;32908;52.344;16.858;2023-05-29T15:01:20;10.40;;;2.60;;
47155;SDS011;32908;52.344;16.858;2023-05-29T15:03:50;7.40;;;2.20;;
47155;SDS011;32908;52.344;16.858;2023-05-29T15:06:21;6.60;;;2.20;;
47155;SDS011;32908;52.344;16.858;2023-05-29T15:08:52;5.20;;;2.30;;
47155;SDS011;32908;52.344;16.858;2023-05-29T15:11:23;7.30;;;2.30;;
47155;SDS011;32908;52.344;16.858;2023-05-29T15:13:54;10.10;;;2.30;;
47155;SDS011;32908;52.344;16.858;2023-05-29T15:16:25;3.70;;;2.20;;
47155;SDS011;32908;52.344;16.858;2023-05-29T15:18:55;5.50;;;2.20;;
47155;SDS011;32908;52.344;16.858;2023-05-29T15:21:26;2.80;;;1.80;;
47155;SDS011;32908;52.344;16.858;2023-05-29T15:23:57;4.60;;;2.20;;